sensor_id;sensor_type;location;lat;lon;timestamp;pressure;altitude;pressure_sealevel;temperature;humidity
14800;BME280;7491;57.750;11.970;2024-02-21T00:00:18;75925.16;;;-142.11;100.00
14800;BME280;7491;57.750;11.970;2024-02-21T00:02:45;75898.66;;;-142.11;100.00
14800;BME280;7491;57.750;11.970;2024-02-21T00:05:13;75919.06;;;-142.11;100.00
14800;BME280;7491;57.750;11.970;2024-02-21T00:07:39;75910.91;;;-142.11;100.00
14800;BME280;7491;57.750;11.970;2024-02-21T00:10:07;75923.13;;;-142.11;100.00
14800;BME280;7491;57.750;11.970;2024-02-21T00:12:34;75910.91;;;-142.11;100.00
14800;BME280;7491;57.750;11.970;2024-02-21T00:15:01;75914.97;;;-142.11;100.00
14800;BME280;7491;57.750;11.970;2024-02-21T00:17:28;75912.94;;;-142.11;100.00
14800;BME280;7491;57.750;11.970;2024-02-21T00:19:54;75892.56;;;-142.11;100.00
14800;BME280;7491;57.750;11.970;2024-02-21T00:22:22;75908.88;;;-142.11;100.00
14800;BME280;7491;57.750;11.970;2024-02-21T00:24:50;75912.94;;;-142.11;100.00
14800;BME280;7491;57.750;11.970;2024-02-21T00:27:16;75892.56;;;-142.11;100.00
14800;BME280;7491;57.750;11.970;2024-02-21T00:29:43;75906.81;;;-142.11;100.00
14800;BME280;7491;57.750;11.970;2024-02-21T00:32:10;75908.88;;;-142.11;100.00
14800;BME280;7491;57.750;11.970;2024-02-21T00:34:36;75894.59;;;-142.11;100.00
14800;BME280;7491;57.750;11.970;2024-02-21T00:37:03;75892.56;;;-142.11;100.00
14800;BME280;7491;57.750;11.970;2024-02-21T00:39:31;75882.38;;;-142.11;100.00
14800;BME280;7491;57.750;11.970;2024-02-21T00:41:58;75884.41;;;-142.11;100.00
14800;BME280;7491;57.750;11.970;2024-02-21T00:44:24;75902.75;;;-142.11;100.00
14800;BME280;7491;57.750;11.970;2024-02-21T00:46:51;75902.75;;;-142.11;100.00
14800;BME280;7491;57.750;11.970;2024-02-21T00:49:18;75884.41;;;-142.11;100.00
14800;BME280;7491;57.750;11.970;2024-02-21T00:51:45;75876.25;;;-142.11;100.00
14800;BME280;7491;57.750;11.970;2024-02-21T00:54:11;75886.44;;;-142.11;100.00
14800;BME280;7491;57.750;11.970;2024-02-21T00:56:39;75876.25;;;-142.11;100.00
14800;BME280;7491;57.750;11.970;2024-02-21T00:59:06;75866.06;;;-142.11;100.00
14800;BME280;7491;57.750;11.970;2024-02-21T01:01:33;75866.06;;;-142.11;100.00
14800;BME280;7491;57.750;11.970;2024-02-21T01:04:00;75878.28;;;-142.11;100.00
14800;BME280;7491;57.750;11.970;2024-02-21T01:06:26;75870.13;;;-142.11;100.00
14800;BME280;7491;57.750;11.970;2024-02-21T01:08:53;75857.91;;;-142.11;100.00
14800;BME280;7491;57.750;11.970;2024-02-21T01:11:20;75857.91;;;-142.11;100.00
14800;BME280;7491;57.750;11.970;2024-02-21T01:13:48;75845.69;;;-142.11;100.00
14800;BME280;7491;57.750;11.970;2024-02-21T01:16:14;75851.78;;;-142.11;100.00
14800;BME280;7491;57.750;11.970;2024-02-21T01:18:41;75843.63;;;-142.11;100.00
14800;BME280;7491;57.750;11.970;2024-02-21T01:21:08;75837.53;;;-142.11;100.00
14800;BME280;7491;57.750;11.970;2024-02-21T01:23:35;75819.19;;;-142.11;100.00
14800;BME280;7491;57.750;11.970;2024-02-21T01:26:03;75833.44;;;-142.11;100.00
14800;BME280;7491;57.750;11.970;2024-02-21T01:28:30;75815.09;;;-142.11;100.00
14800;BME280;7491;57.750;11.970;2024-02-21T01:30:58;75817.13;;;-142.11;100.00
14800;BME280;7491;57.750;11.970;2024-02-21T01:33:25;75804.91;;;-142.11;100.00
14800;BME280;7491;57.750;11.970;2024-02-21T01:35:51;75792.69;;;-142.11;100.00
14800;BME280;7491;57.750;11.970;2024-02-21T01:38:18;75796.75;;;-142.11;100.00
14800;BME280;7491;57.750;11.970;2024-02-21T01:40:45;75802.88;;;-142.11;100.00
14800;BME280;7491;57.750;11.970;2024-02-21T01:43:16;75802.88;;;-142.11;100.00
14800;BME280;7491;57.750;11.970;2024-02-21T01:45:45;75772.28;;;-142.11;100.00
14800;BME280;7491;57.750;11.970;2024-02-21T01:48:14;75780.44;;;-142.11;100.00
14800;BME280;7491;57.750;11.970;2024-02-21T01:50:41;75756.00;;;-142.11;100.00
14800;BME280;7491;57.750;11.970;2024-02-21T01:53:11;75802.88;;;-142.11;100.00
14800;BME280;7491;57.750;11.970;2024-02-21T01:55:43;75762.09;;;-142.11;100.00
14800;BME280;7491;57.750;11.970;2024-02-21T01:58:10;75756.00;;;-142.11;100.00
14800;BME280;7491;57.750;11.970;2024-02-21T02:00:38;75758.03;;;-142.11;100.00
14800;BME280;7491;57.750;11.970;2024-02-21T02:03:07;75745.81;;;-142.11;100.00
14800;BME280;7491;57.750;11.970;2024-02-21T02:05:36;75741.72;;;-142.11;100.00
14800;BME280;7491;57.750;11.970;2024-02-21T02:08:03;75751.91;;;-142.11;100.00
14800;BME280;7491;57.750;11.970;2024-02-21T02:10:30;75737.66;;;-142.11;100.00
14800;BME280;7491;57.750;11.970;2024-02-21T02:12:57;75739.69;;;-142.11;100.00
14800;BME280;7491;57.750;11.970;2024-02-21T02:15:24;75735.59;;;-142.11;100.00
14800;BME280;7491;57.750;11.970;2024-02-21T02:17:50;75723.38;;;-142.11;100.00
14800;BME280;7491;57.750;11.970;2024-02-21T02:20:17;75696.88;;;-142.11;100.00
14800;BME280;7491;57.750;11.970;2024-02-21T02:22:46;75682.63;;;-142.11;100.00
14800;BME280;7491;57.750;11.970;2024-02-21T02:25:14;75692.81;;;-142.11;100.00
14800;BME280;7491;57.750;11.970;2024-02-21T02:27:42;75682.63;;;-142.11;100.00
14800;BME280;7491;57.750;11.970;2024-02-21T02:30:11;75682.63;;;-142.11;100.00
14800;BME280;7491;57.750;11.970;2024-02-21T02:32:38;75664.28;;;-142.11;100.00
14800;BME280;7491;57.750;11.970;2024-02-21T02:35:05;75650.00;;;-142.11;100.00
14800;BME280;7491;57.750;11.970;2024-02-21T02:37:31;75666.31;;;-142.11;100.00
14800;BME280;7491;57.750;11.970;2024-02-21T02:39:58;75643.88;;;-142.11;100.00
14800;BME280;7491;57.750;11.970;2024-02-21T02:42:26;75633.69;;;-142.11;100.00
14800;BME280;7491;57.750;11.970;2024-02-21T02:44:53;75645.94;;;-142.11;100.00
14800;BME280;7491;57.750;11.970;2024-02-21T02:47:20;75629.63;;;-142.11;100.00
14800;BME280;7491;57.750;11.970;2024-02-21T02:49:47;75627.59;;;-142.11;100.00
14800;BME280;7491;57.750;11.970;2024-02-21T02:52:16;75621.47;;;-142.11;100.00
14800;BME280;7491;57.750;11.970;2024-02-21T02:54:43;75635.72;;;-142.11;100.00
14800;BME280;7491;57.750;11.970;2024-02-21T02:57:10;75633.69;;;-142.11;100.00
14800;BME280;7491;57.750;11.970;2024-02-21T02:59:38;75609.25;;;-142.11;100.00
14800;BME280;7491;57.750;11.970;2024-02-21T03:02:04;75631.66;;;-142.11;100.00
14800;BME280;7491;57.750;11.970;2024-02-21T03:04:31;75617.38;;;-142.11;100.00
14800;BME280;7491;57.750;11.970;2024-02-21T03:06:58;75597.00;;;-142.11;100.00
14800;BME280;7491;57.750;11.970;2024-02-21T03:09:25;75601.09;;;-142.11;100.00
14800;BME280;7491;57.750;11.970;2024-02-21T03:11:51;75582.75;;;-142.11;100.00
14800;BME280;7491;57.750;11.970;2024-02-21T03:14:22;75574.59;;;-142.11;100.00
14800;BME280;7491;57.750;11.970;2024-02-21T03:16:52;75576.63;;;-142.11;100.00
14800;BME280;7491;57.750;11.970;2024-02-21T03:19:19;75580.69;;;-142.11;100.00
14800;BME280;7491;57.750;11.970;2024-02-21T03:21:49;75558.28;;;-142.11;100.00
14800;BME280;7491;57.750;11.970;2024-02-21T03:24:16;75568.47;;;-142.11;100.00
14800;BME280;7491;57.750;11.970;2024-02-21T03:26:43;75584.78;;;-142.11;100.00
14800;BME280;7491;57.750;11.970;2024-02-21T03:29:10;75588.84;;;-142.11;100.00
14800;BME280;7491;57.750;11.970;2024-02-21T03:31:38;75582.75;;;-142.11;100.00
14800;BME280;7491;57.750;11.970;2024-02-21T03:34:06;75590.91;;;-142.11;100.00
14800;BME280;7491;57.750;11.970;2024-02-21T03:36:32;75556.25;;;-142.11;100.00
14800;BME280;7491;57.750;11.970;2024-02-21T03:38:59;75568.47;;;-142.11;100.00
14800;BME280;7491;57.750;11.970;2024-02-21T03:41:26;75558.28;;;-142.11;100.00
14800;BME280;7491;57.750;11.970;2024-02-21T03:43:53;75580.69;;;-142.11;100.00
14800;BME280;7491;57.750;11.970;2024-02-21T03:46:20;75560.31;;;-142.11;100.00
14800;BME280;7491;57.750;11.970;2024-02-21T03:48:47;75564.41;;;-142.11;100.00
14800;BME280;7491;57.750;11.970;2024-02-21T03:51:15;75554.22;;;-142.11;100.00
14800;BME280;7491;57.750;11.970;2024-02-21T03:53:42;75544.03;;;-142.11;100.00
14800;BME280;7491;57.750;11.970;2024-02-21T03:56:08;75550.13;;;-142.11;100.00
14800;BME280;7491;57.750;11.970;2024-02-21T03:58:35;75562.34;;;-142.11;100.00
14800;BME280;7491;57.750;11.970;2024-02-21T04:01:02;75550.13;;;-142.11;100.00
14800;BME280;7491;57.750;11.970;2024-02-21T04:03:30;75541.97;;;-142.11;100.00
14800;BME280;7491;57.750;11.970;2024-02-21T04:05:57;75519.56;;;-142.11;100.00
14800;BME280;7491;57.750;11.970;2024-02-21T04:08:25;75531.78;;;-142.11;100.00
14800;BME280;7491;57.750;11.970;2024-02-21T04:10:52;75533.81;;;-142.11;100.00
14800;BME280;7491;57.750;11.970;2024-02-21T04:13:19;75527.72;;;-142.11;100.00
14800;BME280;7491;57.750;11.970;2024-02-21T04:15:47;75517.53;;;-142.11;100.00
14800;BME280;7491;57.750;11.970;2024-02-21T04:18:14;75511.41;;;-142.11;100.00
14800;BME280;7491;57.750;11.970;2024-02-21T04:20:41;75497.13;;;-142.11;100.00
14800;BME280;7491;57.750;11.970;2024-02-21T04:23:07;75497.13;;;-142.11;100.00
14800;BME280;7491;57.750;11.970;2024-02-21T04:25:35;75501.22;;;-142.11;100.00
14800;BME280;7491;57.750;11.970;2024-02-21T04:28:03;75497.13;;;-142.11;100.00
14800;BME280;7491;57.750;11.970;2024-02-21T04:30:29;75505.28;;;-142.11;100.00
14800;BME280;7491;57.750;11.970;2024-02-21T04:32:56;75486.94;;;-142.11;100.00
14800;BME280;7491;57.750;11.970;2024-02-21T04:35:23;75517.53;;;-142.11;100.00
14800;BME280;7491;57.750;11.970;2024-02-21T04:37:50;75505.28;;;-142.11;100.00
14800;BME280;7491;57.750;11.970;2024-02-21T04:40:16;75486.94;;;-142.11;100.00
14800;BME280;7491;57.750;11.970;2024-02-21T04:42:45;75484.91;;;-142.11;100.00
14800;BME280;7491;57.750;11.970;2024-02-21T04:45:11;75480.84;;;-142.11;100.00
14800;BME280;7491;57.750;11.970;2024-02-21T04:47:38;75513.44;;;-142.11;100.00
14800;BME280;7491;57.750;11.970;2024-02-21T04:50:06;75495.09;;;-142.11;100.00
14800;BME280;7491;57.750;11.970;2024-02-21T04:52:32;75507.34;;;-142.11;100.00
14800;BME280;7491;57.750;11.970;2024-02-21T04:54:59;75497.13;;;-142.11;100.00
14800;BME280;7491;57.750;11.970;2024-02-21T04:57:26;75501.22;;;-142.11;100.00
14800;BME280;7491;57.750;11.970;2024-02-21T04:59:54;75507.34;;;-142.11;100.00
14800;BME280;7491;57.750;11.970;2024-02-21T05:02:20;75505.28;;;-142.11;100.00
14800;BME280;7491;57.750;11.970;2024-02-21T05:04:49;75511.41;;;-142.11;100.00
14800;BME280;7491;57.750;11.970;2024-02-21T05:07:16;75513.44;;;-142.11;100.00
14800;BME280;7491;57.750;11.970;2024-02-21T05:09:44;75501.22;;;-142.11;100.00
14800;BME280;7491;57.750;11.970;2024-02-21T05:12:11;75486.94;;;-142.11;100.00
14800;BME280;7491;57.750;11.970;2024-02-21T05:14:38;75478.78;;;-142.11;100.00
14800;BME280;7491;57.750;11.970;2024-02-21T05:17:06;75474.72;;;-142.11;100.00
14800;BME280;7491;57.750;11.970;2024-02-21T05:19:32;75476.75;;;-142.11;100.00
14800;BME280;7491;57.750;11.970;2024-02-21T05:21:59;75466.56;;;-142.11;100.00
14800;BME280;7491;57.750;11.970;2024-02-21T05:24:26;75474.72;;;-142.11;100.00
14800;BME280;7491;57.750;11.970;2024-02-21T05:26:53;75466.56;;;-142.11;100.00
14800;BME280;7491;57.750;11.970;2024-02-21T05:29:20;75468.59;;;-142.11;100.00
14800;BME280;7491;57.750;11.970;2024-02-21T05:31:56;75466.56;;;-142.11;100.00
14800;BME280;7491;57.750;11.970;2024-02-21T05:34:25;75468.59;;;-142.11;100.00
14800;BME280;7491;57.750;11.970;2024-02-21T05:36:52;75458.41;;;-142.11;100.00
14800;BME280;7491;57.750;11.970;2024-02-21T05:39:19;75464.53;;;-142.11;100.00
14800;BME280;7491;57.750;11.970;2024-02-21T05:41:48;75460.44;;;-142.11;100.00
14800;BME280;7491;57.750;11.970;2024-02-21T05:44:15;75462.50;;;-142.11;100.00
14800;BME280;7491;57.750;11.970;2024-02-21T05:46:42;75472.69;;;-142.11;100.00
14800;BME280;7491;57.750;11.970;2024-02-21T05:49:08;75460.44;;;-142.11;100.00
14800;BME280;7491;57.750;11.970;2024-02-21T05:51:36;75468.59;;;-142.11;100.00
14800;BME280;7491;57.750;11.970;2024-02-21T05:54:03;75464.53;;;-142.11;100.00
14800;BME280;7491;57.750;11.970;2024-02-21T05:56:30;75456.38;;;-142.11;100.00
14800;BME280;7491;57.750;11.970;2024-02-21T05:58:57;75460.44;;;-142.11;100.00
14800;BME280;7491;57.750;11.970;2024-02-21T06:01:24;75468.59;;;-142.11;100.00
14800;BME280;7491;57.750;11.970;2024-02-21T06:03:51;75470.66;;;-142.11;100.00
14800;BME280;7491;57.750;11.970;2024-02-21T06:06:17;75468.59;;;-142.11;100.00
14800;BME280;7491;57.750;11.970;2024-02-21T06:08:45;75478.78;;;-142.11;100.00
14800;BME280;7491;57.750;11.970;2024-02-21T06:11:12;75480.84;;;-142.11;100.00
14800;BME280;7491;57.750;11.970;2024-02-21T06:13:40;75472.69;;;-142.11;100.00
14800;BME280;7491;57.750;11.970;2024-02-21T06:16:07;75486.94;;;-142.11;100.00
14800;BME280;7491;57.750;11.970;2024-02-21T06:18:35;75491.03;;;-142.11;100.00
14800;BME280;7491;57.750;11.970;2024-02-21T06:21:04;75495.09;;;-142.11;100.00
14800;BME280;7491;57.750;11.970;2024-02-21T06:23:31;75503.25;;;-142.11;100.00
14800;BME280;7491;57.750;11.970;2024-02-21T06:25:59;75513.44;;;-142.11;100.00
14800;BME280;7491;57.750;11.970;2024-02-21T06:28:25;75511.41;;;-142.11;100.00
14800;BME280;7491;57.750;11.970;2024-02-21T06:30:52;75515.47;;;-142.11;100.00
14800;BME280;7491;57.750;11.970;2024-02-21T06:33:19;75517.53;;;-142.11;100.00
14800;BME280;7491;57.750;11.970;2024-02-21T06:35:50;75519.56;;;-142.11;100.00
14800;BME280;7491;57.750;11.970;2024-02-21T06:38:18;75511.41;;;-142.11;100.00
14800;BME280;7491;57.750;11.970;2024-02-21T06:40:45;75574.59;;;-142.11;100.00
14800;BME280;7491;57.750;11.970;2024-02-21T06:43:17;75550.13;;;-142.11;100.00
14800;BME280;7491;57.750;11.970;2024-02-21T06:45:44;75544.03;;;-142.11;100.00
14800;BME280;7491;57.750;11.970;2024-02-21T06:48:13;75517.53;;;-142.11;100.00
14800;BME280;7491;57.750;11.970;2024-02-21T06:50:39;75521.59;;;-142.11;100.00
14800;BME280;7491;57.750;11.970;2024-02-21T06:53:06;75531.78;;;-142.11;100.00
14800;BME280;7491;57.750;11.970;2024-02-21T06:55:33;75535.88;;;-142.11;100.00
14800;BME280;7491;57.750;11.970;2024-02-21T06:57:59;75535.88;;;-142.11;100.00
14800;BME280;7491;57.750;11.970;2024-02-21T07:00:28;75539.94;;;-142.11;100.00
14800;BME280;7491;57.750;11.970;2024-02-21T07:02:55;75541.97;;;-142.11;100.00
14800;BME280;7491;57.750;11.970;2024-02-21T07:05:21;75527.72;;;-142.11;100.00
14800;BME280;7491;57.750;11.970;2024-02-21T07:07:50;75521.59;;;-142.11;100.00
14800;BME280;7491;57.750;11.970;2024-02-21T07:10:16;75527.72;;;-142.11;100.00
14800;BME280;7491;57.750;11.970;2024-02-21T07:12:43;75519.56;;;-142.11;100.00
14800;BME280;7491;57.750;11.970;2024-02-21T07:15:10;75544.03;;;-142.11;100.00
14800;BME280;7491;57.750;11.970;2024-02-21T07:17:38;75544.03;;;-142.11;100.00
14800;BME280;7491;57.750;11.970;2024-02-21T07:20:06;75554.22;;;-142.11;100.00
14800;BME280;7491;57.750;11.970;2024-02-21T07:22:32;75539.94;;;-142.11;100.00
14800;BME280;7491;57.750;11.970;2024-02-21T07:24:59;75562.34;;;-142.11;100.00
14800;BME280;7491;57.750;11.970;2024-02-21T07:27:26;75537.91;;;-142.11;100.00
14800;BME280;7491;57.750;11.970;2024-02-21T07:29:56;75531.78;;;-142.11;100.00
14800;BME280;7491;57.750;11.970;2024-02-21T07:32:22;75535.88;;;-142.11;100.00
14800;BME280;7491;57.750;11.970;2024-02-21T07:34:50;75531.78;;;-142.11;100.00
14800;BME280;7491;57.750;11.970;2024-02-21T07:37:17;75541.97;;;-142.11;100.00
14800;BME280;7491;57.750;11.970;2024-02-21T07:39:44;75560.31;;;-142.11;100.00
14800;BME280;7491;57.750;11.970;2024-02-21T07:42:10;75537.91;;;-142.11;100.00
14800;BME280;7491;57.750;11.970;2024-02-21T07:44:37;75544.03;;;-142.11;100.00
14800;BME280;7491;57.750;11.970;2024-02-21T07:47:04;75546.06;;;-142.11;100.00
14800;BME280;7491;57.750;11.970;2024-02-21T07:49:32;75544.03;;;-142.11;100.00
14800;BME280;7491;57.750;11.970;2024-02-21T07:52:01;75546.06;;;-142.11;100.00
14800;BME280;7491;57.750;11.970;2024-02-21T07:54:28;75531.78;;;-142.11;100.00
14800;BME280;7491;57.750;11.970;2024-02-21T07:56:55;75527.72;;;-142.11;100.00
14800;BME280;7491;57.750;11.970;2024-02-21T07:59:21;75527.72;;;-142.11;100.00
14800;BME280;7491;57.750;11.970;2024-02-21T08:01:48;75531.78;;;-142.11;100.00
14800;BME280;7491;57.750;11.970;2024-02-21T08:04:15;75552.16;;;-142.11;100.00
14800;BME280;7491;57.750;11.970;2024-02-21T08:06:41;75546.06;;;-142.11;100.00
14800;BME280;7491;57.750;11.970;2024-02-21T08:09:10;75544.03;;;-142.11;100.00
14800;BME280;7491;57.750;11.970;2024-02-21T08:11:36;75552.16;;;-142.11;100.00
14800;BME280;7491;57.750;11.970;2024-02-21T08:14:03;75560.31;;;-142.11;100.00
14800;BME280;7491;57.750;11.970;2024-02-21T08:16:30;75576.63;;;-142.11;100.00
14800;BME280;7491;57.750;11.970;2024-02-21T08:18:56;75562.34;;;-142.11;100.00
14800;BME280;7491;57.750;11.970;2024-02-21T08:21:25;75566.44;;;-142.11;100.00
14800;BME280;7491;57.750;11.970;2024-02-21T08:23:51;75562.34;;;-142.11;100.00
14800;BME280;7491;57.750;11.970;2024-02-21T08:26:21;75574.59;;;-142.11;100.00
14800;BME280;7491;57.750;11.970;2024-02-21T08:28:47;75584.78;;;-142.11;100.00
14800;BME280;7491;57.750;11.970;2024-02-21T08:31:18;75586.81;;;-142.11;100.00
14800;BME280;7491;57.750;11.970;2024-02-21T08:33:45;75592.94;;;-142.11;100.00
14800;BME280;7491;57.750;11.970;2024-02-21T08:36:17;75592.94;;;-142.11;100.00
14800;BME280;7491;57.750;11.970;2024-02-21T08:38:44;75590.91;;;-142.11;100.00
14800;BME280;7491;57.750;11.970;2024-02-21T08:41:11;75592.94;;;-142.11;100.00
14800;BME280;7491;57.750;11.970;2024-02-21T08:43:39;75601.09;;;-142.11;100.00
14800;BME280;7491;57.750;11.970;2024-02-21T08:46:05;75613.31;;;-142.11;100.00
14800;BME280;7491;57.750;11.970;2024-02-21T08:48:32;75617.38;;;-142.11;100.00
14800;BME280;7491;57.750;11.970;2024-02-21T08:50:59;75619.44;;;-142.11;100.00
14800;BME280;7491;57.750;11.970;2024-02-21T08:53:26;75625.53;;;-142.11;100.00
14800;BME280;7491;57.750;11.970;2024-02-21T08:55:52;75641.84;;;-142.11;100.00
14800;BME280;7491;57.750;11.970;2024-02-21T08:58:19;75633.69;;;-142.11;100.00
14800;BME280;7491;57.750;11.970;2024-02-21T09:00:50;75621.47;;;-142.11;100.00
14800;BME280;7491;57.750;11.970;2024-02-21T09:03:17;75625.53;;;-142.11;100.00
14800;BME280;7491;57.750;11.970;2024-02-21T09:05:45;75623.50;;;-142.11;100.00
14800;BME280;7491;57.750;11.970;2024-02-21T09:08:12;75615.34;;;-142.11;100.00
14800;BME280;7491;57.750;11.970;2024-02-21T09:10:39;75625.53;;;-142.11;100.00
14800;BME280;7491;57.750;11.970;2024-02-21T09:13:06;75611.28;;;-142.11;100.00
14800;BME280;7491;57.750;11.970;2024-02-21T09:15:34;75621.47;;;-142.11;100.00
14800;BME280;7491;57.750;11.970;2024-02-21T09:18:02;75621.47;;;-142.11;100.00
14800;BME280;7491;57.750;11.970;2024-02-21T09:20:29;75633.69;;;-142.11;100.00
14800;BME280;7491;57.750;11.970;2024-02-21T09:22:56;75652.03;;;-142.11;100.00
14800;BME280;7491;57.750;11.970;2024-02-21T09:25:23;75645.94;;;-142.11;100.00
14800;BME280;7491;57.750;11.970;2024-02-21T09:27:50;75641.84;;;-142.11;100.00
14800;BME280;7491;57.750;11.970;2024-02-21T09:30:17;75643.88;;;-142.11;100.00
14800;BME280;7491;57.750;11.970;2024-02-21T09:32:44;75664.28;;;-142.11;100.00
14800;BME280;7491;57.750;11.970;2024-02-21T09:35:12;75660.19;;;-142.11;100.00
14800;BME280;7491;57.750;11.970;2024-02-21T09:37:39;75650.00;;;-142.11;100.00
14800;BME280;7491;57.750;11.970;2024-02-21T09:40:06;75652.03;;;-142.11;100.00
14800;BME280;7491;57.750;11.970;2024-02-21T09:42:37;75647.97;;;-142.11;100.00
14800;BME280;7491;57.750;11.970;2024-02-21T09:45:08;75662.22;;;-142.11;100.00
14800;BME280;7491;57.750;11.970;2024-02-21T09:47:41;75641.84;;;-142.11;100.00
14800;BME280;7491;57.750;11.970;2024-02-21T09:50:11;75597.00;;;-142.11;100.00
14800;BME280;7491;57.750;11.970;2024-02-21T09:52:40;75590.91;;;-142.11;100.00
14800;BME280;7491;57.750;11.970;2024-02-21T09:55:08;75627.59;;;-142.11;100.00
14800;BME280;7491;57.750;11.970;2024-02-21T09:57:37;75658.16;;;-142.11;100.00
14800;BME280;7491;57.750;11.970;2024-02-21T10:00:05;75645.94;;;-142.11;100.00
14800;BME280;7491;57.750;11.970;2024-02-21T10:02:33;75664.28;;;-142.11;100.00
14800;BME280;7491;57.750;11.970;2024-02-21T10:05:00;75676.50;;;-142.11;100.00
14800;BME280;7491;57.750;11.970;2024-02-21T10:07:30;75686.69;;;-142.11;100.00
14800;BME280;7491;57.750;11.970;2024-02-21T10:10:01;75686.69;;;-142.11;100.00
14800;BME280;7491;57.750;11.970;2024-02-21T10:12:28;75680.56;;;-142.11;100.00
14800;BME280;7491;57.750;11.970;2024-02-21T10:15:00;75696.88;;;-142.11;100.00
14800;BME280;7491;57.750;11.970;2024-02-21T10:17:27;75717.25;;;-142.11;100.00
14800;BME280;7491;57.750;11.970;2024-02-21T10:19:53;75727.44;;;-142.11;100.00
14800;BME280;7491;57.750;11.970;2024-02-21T10:22:20;75715.22;;;-142.11;100.00
14800;BME280;7491;57.750;11.970;2024-02-21T10:24:48;75741.72;;;-142.11;100.00
14800;BME280;7491;57.750;11.970;2024-02-21T10:27:15;75749.88;;;-142.11;100.00
14800;BME280;7491;57.750;11.970;2024-02-21T10:29:41;75770.25;;;-142.11;100.00
14800;BME280;7491;57.750;11.970;2024-02-21T10:32:09;75768.22;;;-142.11;100.00
14800;BME280;7491;57.750;11.970;2024-02-21T10:34:38;75778.41;;;-142.11;100.00
14800;BME280;7491;57.750;11.970;2024-02-21T10:37:06;75792.69;;;-142.11;100.00
14800;BME280;7491;57.750;11.970;2024-02-21T10:39:33;75792.69;;;-142.11;100.00
14800;BME280;7491;57.750;11.970;2024-02-21T10:42:03;75806.94;;;-142.11;100.00
14800;BME280;7491;57.750;11.970;2024-02-21T10:44:31;75837.53;;;-142.11;100.00
14800;BME280;7491;57.750;11.970;2024-02-21T10:46:58;75839.56;;;-142.11;100.00
14800;BME280;7491;57.750;11.970;2024-02-21T10:49:25;75839.56;;;-142.11;100.00
14800;BME280;7491;57.750;11.970;2024-02-21T10:51:55;75868.09;;;-142.11;100.00
14800;BME280;7491;57.750;11.970;2024-02-21T10:54:39;75876.25;;;-142.11;100.00
14800;BME280;7491;57.750;11.970;2024-02-21T10:57:13;75872.19;;;-142.11;100.00
14800;BME280;7491;57.750;11.970;2024-02-21T10:59:40;75878.28;;;-142.11;100.00
14800;BME280;7491;57.750;11.970;2024-02-21T11:02:07;75872.19;;;-142.11;100.00
14800;BME280;7491;57.750;11.970;2024-02-21T11:04:34;75892.56;;;-142.11;100.00
14800;BME280;7491;57.750;11.970;2024-02-21T11:07:03;75878.28;;;-142.11;100.00
14800;BME280;7491;57.750;11.970;2024-02-21T11:09:30;75890.53;;;-142.11;100.00
14800;BME280;7491;57.750;11.970;2024-02-21T11:11:58;75888.47;;;-142.11;100.00
14800;BME280;7491;57.750;11.970;2024-02-21T11:14:27;75878.28;;;-142.11;100.00
14800;BME280;7491;57.750;11.970;2024-02-21T11:16:57;75870.13;;;-142.11;100.00
14800;BME280;7491;57.750;11.970;2024-02-21T11:19:25;75886.44;;;-142.11;100.00
14800;BME280;7491;57.750;11.970;2024-02-21T11:21:55;75902.75;;;-142.11;100.00
14800;BME280;7491;57.750;11.970;2024-02-21T11:24:29;75894.59;;;-142.11;100.00
14800;BME280;7491;57.750;11.970;2024-02-21T11:26:56;75888.47;;;-142.11;100.00
14800;BME280;7491;57.750;11.970;2024-02-21T11:29:23;75880.31;;;-142.11;100.00
14800;BME280;7491;57.750;11.970;2024-02-21T11:31:52;75874.22;;;-142.11;100.00
14800;BME280;7491;57.750;11.970;2024-02-21T11:34:19;75861.97;;;-142.11;100.00
14800;BME280;7491;57.750;11.970;2024-02-21T11:36:47;75851.78;;;-142.11;100.00
14800;BME280;7491;57.750;11.970;2024-02-21T11:39:18;75859.94;;;-142.11;100.00
14800;BME280;7491;57.750;11.970;2024-02-21T11:41:47;75831.41;;;-142.11;100.00
14800;BME280;7491;57.750;11.970;2024-02-21T11:44:13;75825.28;;;-142.11;100.00
14800;BME280;7491;57.750;11.970;2024-02-21T11:46:40;75831.41;;;-142.11;100.00
14800;BME280;7491;57.750;11.970;2024-02-21T11:49:08;75815.09;;;-142.11;100.00
14800;BME280;7491;57.750;11.970;2024-02-21T11:51:36;75778.41;;;-142.11;100.00
14800;BME280;7491;57.750;11.970;2024-02-21T11:54:02;75760.06;;;-142.11;100.00
14800;BME280;7491;57.750;11.970;2024-02-21T11:56:30;75760.06;;;-142.11;100.00
14800;BME280;7491;57.750;11.970;2024-02-21T11:58:59;75768.22;;;-142.11;100.00
14800;BME280;7491;57.750;11.970;2024-02-21T12:01:25;75739.69;;;-142.11;100.00
14800;BME280;7491;57.750;11.970;2024-02-21T12:03:52;75711.16;;;-142.11;100.00
14800;BME280;7491;57.750;11.970;2024-02-21T12:06:20;75698.91;;;-142.11;100.00
14800;BME280;7491;57.750;11.970;2024-02-21T12:08:47;75700.97;;;-142.11;100.00
14800;BME280;7491;57.750;11.970;2024-02-21T12:11:21;75698.91;;;-142.11;100.00
14800;BME280;7491;57.750;11.970;2024-02-21T12:13:58;75711.16;;;-142.11;100.00
14800;BME280;7491;57.750;11.970;2024-02-21T12:16:27;75698.91;;;-142.11;100.00
14800;BME280;7491;57.750;11.970;2024-02-21T12:18:53;75694.84;;;-142.11;100.00
14800;BME280;7491;57.750;11.970;2024-02-21T12:21:24;75694.84;;;-142.11;100.00
14800;BME280;7491;57.750;11.970;2024-02-21T12:23:53;75680.56;;;-142.11;100.00
14800;BME280;7491;57.750;11.970;2024-02-21T12:26:20;75670.38;;;-142.11;100.00
14800;BME280;7491;57.750;11.970;2024-02-21T12:28:46;75672.44;;;-142.11;100.00
14800;BME280;7491;57.750;11.970;2024-02-21T12:31:13;75660.19;;;-142.11;100.00